Time;durP1;ratioP1;P1;durP2;ratioP2;P2;SDS_P1;SDS_P2;PMS_P1;PMS_P2;Temp;Humidity;BMP_temperature;BMP_pressure;BME280_temperature;BME280_humidity;BME280_pressure;Samples;Min_cycle;Max_cycle;Signal;HPM_P1;HPM_P2
2022/10/03 00:00:32;;;;;;;7.97;4.40;;;;;;;16.02;100.00;101358.81;5075806;28;20016;-76
2022/10/03 00:03:39;;;;;;;7.88;3.38;;;;;;;16.02;100.00;101358.81;5025122;28;20040;-76
2022/10/03 00:06:23;;;;;;;10.02;4.47;;;;;;;16.04;100.00;101356.50;5020423;28;20497;-77
2022/10/03 00:09:03;;;;;;;9.23;4.00;;;;;;;16.03;100.00;101354.88;5028586;28;20089;-76
2022/10/03 00:11:59;;;;;;;9.32;4.72;;;;;;;16.03;100.00;101354.88;5093109;28;20140;-76
2022/10/03 00:14:28;;;;;;;8.35;4.32;;;;;;;16.00;100.00;101355.50;5079788;28;20060;-76
2022/10/03 00:17:12;;;;;;;9.32;4.82;;;;;;;16.00;100.00;101355.50;5079474;28;20032;-76
2022/10/03 00:19:44;;;;;;;6.60;4.70;;;;;;;16.00;100.00;101353.50;5061747;28;20223;-77
2022/10/03 00:22:19;;;;;;;10.20;4.90;;;;;;;15.96;100.00;101355.25;5061650;28;20506;-77
2022/10/03 00:25:01;;;;;;;8.90;4.43;;;;;;;15.98;100.00;101357.75;5027900;28;20028;-77
2022/10/03 00:27:32;;;;;;;11.00;4.63;;;;;;;15.98;100.00;101360.56;5061842;28;20388;-76
2022/10/03 00:30:10;;;;;;;9.90;5.05;;;;;;;15.97;100.00;101353.31;5062835;28;20035;-77
2022/10/03 00:32:48;;;;;;;12.20;4.93;;;;;;;15.95;100.00;101352.78;5050098;28;20028;-77
2022/10/03 00:35:53;;;;;;;12.80;5.82;;;;;;;15.92;100.00;101354.22;5044954;28;20469;-77
2022/10/03 00:38:26;;;;;;;8.65;5.28;;;;;;;15.91;100.00;101357.31;4985977;28;20038;-77
2022/10/03 00:41:10;;;;;;;13.85;5.50;;;;;;;15.89;100.00;101357.66;5050693;28;20078;-77
2022/10/03 00:43:50;;;;;;;9.70;5.22;;;;;;;15.87;100.00;101362.72;5051869;28;20408;-77
2022/10/03 00:46:36;;;;;;;8.85;5.20;;;;;;;15.90;100.00;101364.09;5032669;28;20488;-77
2022/10/03 00:49:24;;;;;;;8.38;4.45;;;;;;;15.91;100.00;101360.97;5060871;28;20031;-77
2022/10/03 00:52:27;;;;;;;8.88;4.97;;;;;;;15.91;100.00;101368.53;5060597;28;20044;-77
2022/10/03 00:55:26;;;;;;;6.90;4.10;;;;;;;15.90;100.00;101364.09;5052046;28;20035;-77
2022/10/03 00:58:07;;;;;;;8.15;4.43;;;;;;;15.91;100.00;101368.53;5063366;28;20123;-77
2022/10/03 01:00:33;;;;;;;9.13;4.50;;;;;;;15.92;100.00;101370.22;5060936;28;20055;-77
2022/10/03 01:03:16;;;;;;;9.25;4.70;;;;;;;15.90;100.00;101370.50;5060671;28;20032;-77
2022/10/03 01:05:56;;;;;;;5.68;3.90;;;;;;;15.91;100.00;101379.75;5045127;28;20476;-77
2022/10/03 01:08:37;;;;;;;7.50;4.22;;;;;;;15.89;100.00;101374.47;5063586;28;20115;-77
2022/10/03 01:11:14;;;;;;;6.43;3.58;;;;;;;15.89;100.00;101379.25;5053299;28;20104;-77
2022/10/03 01:13:45;;;;;;;5.30;4.03;;;;;;;15.90;100.00;101370.50;5062696;28;20027;-77
2022/10/03 01:16:42;;;;;;;13.07;5.95;;;;;;;15.91;100.00;101374.13;5078429;28;20032;-77
2022/10/03 01:19:25;;;;;;;8.25;4.68;;;;;;;15.88;100.00;101374.75;5047213;28;20112;-77
2022/10/03 01:22:00;;;;;;;11.60;6.00;;;;;;;15.89;100.00;101368.03;5061591;28;20051;-77
2022/10/03 01:24:37;;;;;;;12.15;5.97;;;;;;;15.90;100.00;101361.28;5074799;28;20184;-77
2022/10/03 01:27:13;;;;;;;10.27;5.20;;;;;;;15.89;100.00;101365.22;5060257;28;20060;-77
2022/10/03 01:32:36;;;;;;;9.20;5.30;;;;;;;15.89;100.00;101365.22;5059735;28;20365;-77
2022/10/03 01:35:14;;;;;;;9.30;5.35;;;;;;;15.84;100.00;101358.56;5043877;28;20091;-77
2022/10/03 01:37:48;;;;;;;10.65;4.47;;;;;;;15.88;100.00;101357.94;5052320;28;20098;-76
2022/10/03 01:40:36;;;;;;;8.35;4.93;;;;;;;15.87;100.00;101357.13;5029177;28;20097;-77
2022/10/03 01:43:11;;;;;;;7.90;4.90;;;;;;;15.84;100.00;101366.97;5049899;28;20032;-77
2022/10/03 01:46:06;;;;;;;9.00;4.30;;;;;;;15.86;100.00;101370.31;5058126;28;20465;-77
2022/10/03 01:48:50;;;;;;;10.88;4.57;;;;;;;15.86;100.00;101369.47;5042500;28;20043;-77
2022/10/03 01:51:30;;;;;;;8.45;4.50;;;;;;;15.85;100.00;101371.47;5034919;28;20488;-77
2022/10/03 01:54:16;;;;;;;12.10;5.28;;;;;;;15.88;100.00;101364.41;5025614;28;20036;-77
2022/10/03 01:57:03;;;;;;;9.68;4.00;;;;;;;15.86;100.00;101366.69;5043388;28;20028;-77
2022/10/03 01:59:37;;;;;;;10.57;4.97;;;;;;;15.84;100.00;101366.97;5043216;28;20046;-77
2022/10/03 02:02:34;;;;;;;8.95;4.07;;;;;;;15.85;100.00;101370.59;5043565;28;20051;-77
2022/10/03 02:05:11;;;;;;;8.73;4.43;;;;;;;15.82;100.00;101377.69;5016525;28;20047;-77
2022/10/03 02:07:44;;;;;;;8.82;4.05;;;;;;;15.83;100.00;101373.72;5054791;28;20101;-77
2022/10/03 02:10:31;;;;;;;8.07;4.20;;;;;;;15.82;100.00;101371.22;5048778;28;20040;-77
2022/10/03 02:13:13;;;;;;;8.07;4.00;;;;;;;15.81;100.00;101376.00;5082875;28;20547;-77
2022/10/03 02:15:39;;;;;;;7.32;4.05;;;;;;;15.81;100.00;101378.78;5043024;28;20408;-77
2022/10/03 02:18:44;;;;;;;5.95;3.45;;;;;;;15.80;100.00;101371.53;5059215;28;20032;-77
2022/10/03 02:21:13;;;;;;;8.45;4.03;;;;;;;15.80;100.00;101368.75;5002551;28;20048;-77
2022/10/03 02:23:42;;;;;;;10.60;3.90;;;;;;;15.79;100.00;101380.25;5059265;28;20044;-77
2022/10/03 02:26:08;;;;;;;8.27;4.10;;;;;;;15.77;100.00;101366.56;5026473;28;20036;-77
2022/10/03 02:29:09;;;;;;;7.05;3.65;;;;;;;15.79;100.00;101367.06;5086076;28;20028;-77
2022/10/03 02:31:55;;;;;;;9.50;4.30;;;;;;;15.78;100.00;101371.00;5024194;28;20067;-77
2022/10/03 02:34:33;;;;;;;11.07;4.30;;;;;;;15.78;100.00;101364.59;5089034;28;20374;-77
2022/10/03 02:37:08;;;;;;;8.75;4.05;;;;;;;15.77;100.00;101363.75;5084181;28;20039;-77
2022/10/03 02:39:52;;;;;;;8.10;3.80;;;;;;;15.75;100.00;101366.03;5059298;28;20033;-77
2022/10/03 02:42:36;;;;;;;8.70;4.05;;;;;;;15.76;100.00;101359.28;5076616;28;20100;-77
2022/10/03 02:45:07;;;;;;;8.88;3.65;;;;;;;15.77;100.00;101368.53;5083024;28;20035;-77
2022/10/03 02:47:42;;;;;;;8.73;3.42;;;;;;;15.75;100.00;101360.44;5064549;28;20032;-77
2022/10/03 02:50:24;;;;;;;10.95;4.47;;;;;;;15.72;100.00;101358.25;5058983;28;20115;-77
2022/10/03 02:53:08;;;;;;;7.88;4.15;;;;;;;15.68;100.00;101354.38;5047412;28;20052;-77
2022/10/03 02:55:53;;;;;;;13.20;4.78;;;;;;;15.66;100.00;101356.66;5071083;28;20025;-77
2022/10/03 02:58:28;;;;;;;11.57;4.20;;;;;;;15.66;100.00;101353.84;5057988;28;20036;-77
2022/10/03 03:01:05;;;;;;;12.20;4.90;;;;;;;15.65;100.00;101349.38;5051333;28;20084;-77
2022/10/03 03:03:53;;;;;;;9.60;3.83;;;;;;;15.63;100.00;101351.69;5063537;28;20120;-76
2022/10/03 03:06:40;;;;;;;9.82;4.50;;;;;;;15.61;100.00;101359.53;5054872;28;20039;-77
2022/10/03 03:09:43;;;;;;;14.98;4.88;;;;;;;15.56;100.00;101349.25;5063966;28;20546;-77
2022/10/03 03:12:27;;;;;;;8.35;4.05;;;;;;;15.57;100.00;101336.09;5039576;28;20094;-77
2022/10/03 03:14:56;;;;;;;6.97;3.80;;;;;;;15.55;100.00;101342.00;5038510;28;20040;-77
2022/10/03 03:17:33;;;;;;;9.68;3.72;;;;;;;15.54;100.00;101342.31;5038380;28;20036;-77
2022/10/03 03:20:14;;;;;;;8.88;4.30;;;;;;;15.51;100.00;101345.72;5056254;28;20101;-77
2022/10/03 03:23:07;;;;;;;7.55;4.05;;;;;;;15.48;100.00;101338.75;5038226;28;20059;-76
2022/10/03 03:25:41;;;;;;;7.07;3.55;;;;;;;15.48;100.00;101337.94;5038338;28;20040;-77
2022/10/03 03:28:18;;;;;;;5.57;3.58;;;;;;;15.45;100.00;101330.16;5021798;28;20036;-77
2022/10/03 03:30:59;;;;;;;6.80;3.90;;;;;;;15.44;100.00;101334.09;5006436;28;20025;-77
2022/10/03 03:33:27;;;;;;;11.23;3.80;;;;;;;15.41;100.00;101338.34;5038219;28;20478;-76
2022/10/03 03:35:58;;;;;;;10.45;3.80;;;;;;;15.35;100.00;101333.94;5045504;28;20025;-77
2022/10/03 03:38:41;;;;;;;7.68;3.63;;;;;;;15.35;100.00;101333.94;5055743;28;20075;-77
2022/10/03 03:41:18;;;;;;;6.57;3.38;;;;;;;15.31;100.00;101325.34;5005539;28;20067;-77
2022/10/03 03:43:54;;;;;;;7.30;3.10;;;;;;;15.24;100.00;101326.88;5042072;28;20036;-77
2022/10/03 03:46:56;;;;;;;9.30;3.85;;;;;;;15.23;100.00;101328.84;5020566;28;20103;-76
2022/10/03 03:49:28;;;;;;;10.15;4.13;;;;;;;15.15;100.00;101323.94;5040168;28;20029;-77
2022/10/03 03:52:18;;;;;;;5.43;3.30;;;;;;;15.12;100.00;101327.34;5042251;28;20044;-77
2022/10/03 03:54:47;;;;;;;6.10;3.58;;;;;;;15.08;100.00;101324.34;5037253;28;20040;-76
2022/10/03 03:57:46;;;;;;;5.45;3.10;;;;;;;15.03;100.00;101327.22;5041957;28;20040;-77
2022/10/03 04:00:15;;;;;;;8.82;3.38;;;;;;;14.97;100.00;101312.47;5012169;28;20477;-77
2022/10/03 04:03:21;;;;;;;7.10;3.10;;;;;;;14.86;100.00;101304.56;5026089;28;20047;-76
2022/10/03 04:06:04;;;;;;;8.55;3.47;;;;;;;14.82;100.00;101312.72;5039525;28;20115;-77
2022/10/03 04:09:04;;;;;;;6.38;3.35;;;;;;;14.78;100.00;101310.84;5059757;28;20116;-77
2022/10/03 04:12:08;;;;;;;7.45;3.78;;;;;;;14.71;100.00;101303.66;5047435;28;20147;-76
2022/10/03 04:14:58;;;;;;;8.75;4.55;;;;;;;14.67;100.00;101302.59;4991847;28;20048;-76
2022/10/03 04:20:45;;;;;;;9.20;4.45;;;;;;;14.53;100.00;101310.91;5072867;28;20036;-76
2022/10/03 04:23:25;;;;;;;10.98;4.53;;;;;;;14.52;100.00;101303.66;5077961;28;20041;-76
2022/10/03 04:25:59;;;;;;;11.23;4.75;;;;;;;14.50;100.00;101305.06;5079683;28;20117;-77
2022/10/03 04:28:43;;;;;;;10.05;5.03;;;;;;;14.49;100.00;101311.78;5066926;28;20036;-77
2022/10/03 04:31:40;;;;;;;9.52;4.47;;;;;;;14.46;100.00;101307.63;5062108;28;20020;-76
2022/10/03 04:34:33;;;;;;;8.40;4.10;;;;;;;14.48;100.00;101316.53;5044970;28;20036;-76
2022/10/03 04:37:08;;;;;;;;;;;;;;;14.48;100.00;101304.53;5057405;28;20119;-76
2022/10/03 04:40:10;;;;;;;10.73;4.78;;;;;;;14.48;100.00;101310.94;5044750;28;19916;-76
2022/10/03 04:42:48;;;;;;;9.45;4.25;;;;;;;14.49;100.00;101314.59;5077863;28;20110;-76
2022/10/03 04:45:29;;;;;;;10.35;4.32;;;;;;;14.53;100.00;101315.66;5061297;28;20036;-77
2022/10/03 04:48:14;;;;;;;8.00;4.30;;;;;;;14.55;100.00;101315.38;5064130;28;20059;-77
2022/10/03 04:50:46;;;;;;;7.03;3.95;;;;;;;14.55;100.00;101316.19;5079380;28;20042;-77
2022/10/03 04:53:39;;;;;;;7.10;3.85;;;;;;;14.57;100.00;101319.53;5044040;28;20060;-76
2022/10/03 04:56:25;;;;;;;6.03;3.78;;;;;;;14.60;100.00;101307.75;5015944;28;20036;-77
2022/10/03 04:58:55;;;;;;;9.20;4.18;;;;;;;14.63;100.00;101300.72;5000885;28;20114;-77
2022/10/03 05:01:46;;;;;;;6.22;3.70;;;;;;;14.63;100.00;101300.72;5033640;28;20553;-76
2022/10/03 05:04:25;;;;;;;4.75;3.40;;;;;;;14.63;100.00;101295.13;5089557;28;20047;-76
2022/10/03 05:07:40;;;;;;;11.68;4.70;;;;;;;14.68;100.00;101297.81;5080603;28;20041;-76
2022/10/03 05:10:55;;;;;;;9.50;4.32;;;;;;;14.70;100.00;101295.56;5078856;28;20048;-76
2022/10/03 05:13:50;;;;;;;8.50;4.60;;;;;;;14.70;100.00;101304.78;5055767;28;20045;-76
2022/10/03 05:16:54;;;;;;;9.40;5.50;;;;;;;14.73;100.00;101303.34;5077324;28;20064;-75
2022/10/03 05:19:22;;;;;;;7.97;4.72;;;;;;;14.74;100.00;101296.63;5056318;28;20040;-76
2022/10/03 05:21:54;;;;;;;9.80;5.20;;;;;;;14.76;100.00;101302.75;5080430;28;20051;-76
2022/10/03 05:25:01;;;;;;;9.70;4.68;;;;;;;14.78;100.00;101308.88;5080341;28;20040;-77
2022/10/03 05:27:50;;;;;;;9.68;5.20;;;;;;;14.80;100.00;101306.59;5067296;28;20484;-76
2022/10/03 05:30:41;;;;;;;7.82;5.10;;;;;;;14.79;100.00;101304.94;5080998;28;20168;-76
2022/10/03 05:33:37;;;;;;;10.85;5.68;;;;;;;14.82;100.00;101309.94;5059747;28;20032;-76
2022/10/03 05:36:10;;;;;;;9.73;6.00;;;;;;;14.82;100.00;101309.09;5017465;28;20108;-76
2022/10/03 05:39:18;;;;;;;11.55;5.65;;;;;;;14.83;100.00;101306.00;5067485;28;20415;-76
2022/10/03 05:41:52;;;;;;;11.48;5.72;;;;;;;14.81;100.00;101308.25;5078416;28;20510;-76
2022/10/03 05:44:19;;;;;;;8.82;5.40;;;;;;;14.84;100.00;101302.06;5062200;28;20399;-76
2022/10/03 05:50:15;;;;;;;9.02;5.90;;;;;;;14.85;100.00;101306.53;5089684;28;20086;-76
2022/10/03 05:53:00;;;;;;;11.63;6.07;;;;;;;14.86;100.00;101299.78;5098171;28;20479;-75
2022/10/03 05:55:35;;;;;;;9.00;5.47;;;;;;;14.88;100.00;101305.09;5059121;28;20028;-76
2022/10/03 05:58:19;;;;;;;9.98;5.60;;;;;;;14.87;100.00;101301.44;5063805;28;20434;-76
2022/10/03 06:01:13;;;;;;;11.13;6.07;;;;;;;14.90;100.00;101295.25;5079697;28;20551;-75
2022/10/03 06:03:55;;;;;;;10.45;6.65;;;;;;;14.88;100.00;101289.13;5079578;28;20077;-75
2022/10/03 06:06:32;;;;;;;13.40;7.23;;;;;;;14.90;100.00;101295.25;5071372;28;20028;-76
2022/10/03 06:09:26;;;;;;;9.25;5.75;;;;;;;14.88;100.00;101305.09;5089208;28;20506;-76
2022/10/03 06:12:01;;;;;;;10.07;5.85;;;;;;;14.88;100.00;101289.13;5102173;28;20061;-76
2022/10/03 06:14:45;;;;;;;9.82;5.63;;;;;;;14.92;100.00;101292.16;5034030;28;20453;-76
2022/10/03 06:17:41;;;;;;;8.88;6.03;;;;;;;14.92;100.00;101301.38;5085634;28;20032;-76
2022/10/03 06:20:44;;;;;;;10.68;6.20;;;;;;;14.92;100.00;101294.94;5079394;28;20036;-75
2022/10/03 06:23:58;;;;;;;10.68;6.03;;;;;;;14.93;100.00;101294.66;5078890;28;20063;-76
2022/10/03 06:26:29;;;;;;;;;;;;;;;14.90;100.00;101295.25;4991845;28;20038;-71
2022/10/03 06:29:19;;;;;;;8.88;5.95;;;;;;;14.92;100.00;101295.78;5097270;28;19965;-71
2022/10/03 06:32:09;;;;;;;9.20;6.13;;;;;;;14.93;100.00;101299.41;5067478;28;20060;-71
2022/10/03 06:35:05;;;;;;;13.00;6.15;;;;;;;14.92;100.00;101298.56;5078985;28;20031;-77
2022/10/03 06:38:06;;;;;;;12.35;6.60;;;;;;;14.94;100.00;101301.91;5045014;28;20518;-76
2022/10/03 06:41:10;;;;;;;10.25;5.80;;;;;;;14.95;100.00;101297.13;5047889;28;20016;-77
2022/10/03 06:43:50;;;;;;;10.82;6.55;;;;;;;14.93;100.00;101300.25;4975530;28;20034;-76
2022/10/03 06:46:34;;;;;;;9.57;6.15;;;;;;;14.97;100.00;101306.06;4975457;28;20039;-77
2022/10/03 06:49:27;;;;;;;9.48;5.72;;;;;;;14.97;100.00;101304.09;4975609;28;20038;-76
2022/10/03 06:52:26;;;;;;;8.52;6.07;;;;;;;15.01;100.00;101306.28;4959037;28;20042;-76
2022/10/03 06:55:22;;;;;;;10.90;6.53;;;;;;;15.04;100.00;101305.66;4975030;28;20031;-76
2022/10/03 06:58:23;;;;;;;12.68;6.55;;;;;;;15.06;100.00;101309.00;4991735;28;20495;-77
2022/10/03 07:01:10;;;;;;;11.30;6.65;;;;;;;15.07;100.00;101310.63;4955297;29;20439;-77
2022/10/03 07:04:03;;;;;;;11.50;5.82;;;;;;;15.06;100.00;101312.63;4958838;28;20574;-77
2022/10/03 07:06:53;;;;;;;8.90;5.88;;;;;;;15.08;100.00;101323.50;4958259;28;20058;-76
2022/10/03 07:09:43;;;;;;;10.48;5.40;;;;;;;15.11;100.00;101317.31;4991144;28;20098;-76
2022/10/03 07:12:36;;;;;;;10.18;5.45;;;;;;;15.14;100.00;101323.13;4980409;28;20042;-76
2022/10/03 07:15:35;;;;;;;9.35;5.53;;;;;;;15.18;100.00;101320.53;4970631;28;20044;-76
2022/10/03 07:18:23;;;;;;;12.23;5.82;;;;;;;15.23;100.00;101333.59;5047537;28;20041;-77
2022/10/03 07:21:37;;;;;;;9.00;5.60;;;;;;;15.24;100.00;101338.06;5043431;28;20034;-76
2022/10/03 07:24:25;;;;;;;9.23;5.57;;;;;;;15.27;100.00;101349.50;5066926;28;20053;-77
2022/10/03 07:27:16;;;;;;;8.75;5.05;;;;;;;15.29;100.00;101347.19;5070084;28;20444;-77
2022/10/03 07:29:51;;;;;;;6.63;4.60;;;;;;;15.30;100.00;101354.47;5059842;28;20032;-77
2022/10/03 07:32:39;;;;;;;10.18;5.90;;;;;;;15.33;100.00;101359.47;5062901;28;20036;-77
2022/10/03 07:35:19;;;;;;;9.90;5.53;;;;;;;15.37;100.00;101365.28;5064544;28;20177;-76
2022/10/03 07:40:48;;;;;;;12.20;7.28;;;;;;;15.39;100.00;101366.63;5079007;28;20074;-76
2022/10/03 07:43:30;;;;;;;9.90;5.78;;;;;;;15.42;100.00;101371.59;5103976;28;20093;-77
2022/10/03 07:46:26;;;;;;;11.43;6.22;;;;;;;15.47;100.00;101372.69;5092743;28;20043;-77
2022/10/03 07:49:18;;;;;;;9.15;5.70;;;;;;;15.51;100.00;101379.31;5098419;28;20369;-77
2022/10/03 07:52:22;;;;;;;8.57;5.85;;;;;;;15.54;100.00;101373.09;5075742;28;20036;-76
2022/10/03 07:55:18;;;;;;;8.52;5.50;;;;;;;15.58;100.00;101385.38;5060214;28;20028;-77
2022/10/03 07:58:04;;;;;;;11.73;6.65;;;;;;;15.61;100.00;101384.75;5096184;28;20148;-77
2022/10/03 08:01:06;;;;;;;8.13;5.25;;;;;;;15.66;100.00;101387.47;5099982;28;20057;-77
2022/10/03 08:04:00;;;;;;;11.60;5.57;;;;;;;15.69;100.00;101389.69;5098343;28;20023;-77
2022/10/03 08:06:36;;;;;;;9.48;5.80;;;;;;;15.73;100.00;101390.72;5039177;28;20032;-77
2022/10/03 08:09:02;;;;;;;12.77;6.80;;;;;;;15.76;100.00;101389.25;5037903;28;20032;-77
2022/10/03 08:11:52;;;;;;;10.88;5.40;;;;;;;15.79;100.00;101383.88;5055416;28;20047;-77
2022/10/03 08:14:39;;;;;;;10.60;5.15;;;;;;;15.83;100.00;101386.91;5077664;28;20544;-77
2022/10/03 08:17:29;;;;;;;9.25;5.47;;;;;;;15.87;100.00;101390.75;5107441;28;20090;-77
2022/10/03 08:20:23;;;;;;;11.23;6.30;;;;;;;15.90;100.00;101394.91;5060953;28;20127;-77
2022/10/03 08:23:14;;;;;;;9.80;6.22;;;;;;;15.93;100.00;101399.88;5055548;28;20063;-77
2022/10/03 08:26:08;;;;;;;11.43;6.10;;;;;;;15.96;100.00;101404.84;5081406;28;20032;-77
2022/10/03 08:29:02;;;;;;;9.00;5.30;;;;;;;15.99;100.00;101412.66;5055780;28;20032;-77
2022/10/03 08:31:33;;;;;;;11.15;6.50;;;;;;;16.01;100.00;101411.19;5120000;28;20034;-77
2022/10/03 08:34:26;;;;;;;10.38;5.88;;;;;;;16.02;100.00;101415.69;5089158;28;20020;-77
2022/10/03 08:36:55;;;;;;;9.52;5.90;;;;;;;16.08;100.00;101413.59;5081394;28;20032;-77
2022/10/03 08:39:23;;;;;;;10.50;6.00;;;;;;;16.10;100.00;101416.91;5112642;28;20063;-77
2022/10/03 08:42:34;;;;;;;9.23;5.50;;;;;;;16.14;100.00;101417.97;5099390;28;20059;-77
2022/10/03 08:45:21;;;;;;;9.73;5.45;;;;;;;16.19;100.00;101419.84;5050888;28;20032;-77
2022/10/03 08:48:12;;;;;;;7.70;4.90;;;;;;;16.22;100.00;101417.25;5090111;28;20480;-77
2022/10/03 08:50:55;;;;;;;13.18;5.25;;;;;;;16.25;100.00;101415.81;5099287;28;20032;-77
2022/10/03 08:53:38;;;;;;;12.10;5.60;;;;;;;16.26;100.00;101421.09;5080748;28;20029;-76
2022/10/03 08:56:26;;;;;;;9.35;5.55;;;;;;;16.28;100.00;101420.78;5064960;28;20021;-77
2022/10/03 08:59:19;;;;;;;7.22;4.75;;;;;;;16.32;100.00;101421.81;5061122;28;20028;-77
2022/10/03 09:02:05;;;;;;;;;;;;;;;16.34;100.00;101421.50;5048563;28;20054;-76
2022/10/03 09:05:09;;;;;;;7.70;4.43;;;;;;;16.37;100.00;101423.69;5080802;28;20002;-77
2022/10/03 09:07:37;;;;;;;9.15;4.25;;;;;;;16.38;100.00;101422.53;5096794;28;20516;-76
2022/10/03 09:10:34;;;;;;;8.80;4.75;;;;;;;16.41;100.00;101413.50;5080440;28;20051;-76
2022/10/03 09:13:20;;;;;;;5.95;4.00;;;;;;;16.42;100.00;101418.81;5074231;28;20036;-77
2022/10/03 09:16:14;;;;;;;9.18;4.28;;;;;;;16.46;100.00;101417.03;5080896;28;20069;-77
2022/10/03 09:18:43;;;;;;;7.30;3.72;;;;;;;16.51;100.00;101413.31;5049749;28;20032;-76
2022/10/03 09:21:08;;;;;;;6.30;4.20;;;;;;;16.55;100.00;101417.16;5077668;28;20042;-76
2022/10/03 09:23:44;;;;;;;10.70;5.00;;;;;;;16.57;100.00;101414.84;5063769;28;20455;-76
2022/10/03 09:26:43;;;;;;;10.65;4.43;;;;;;;16.61;100.00;101417.88;5081420;28;20325;-77
2022/10/03 09:29:26;;;;;;;9.45;4.28;;;;;;;16.67;100.00;101419.44;5080729;28;20059;-76
2022/10/03 09:32:07;;;;;;;10.13;4.40;;;;;;;16.73;100.00;101416.19;5048328;28;20545;-77
2022/10/03 09:34:54;;;;;;;8.20;4.30;;;;;;;16.77;100.00;101418.41;5067821;28;20042;-76
2022/10/03 09:37:35;;;;;;;8.77;4.15;;;;;;;16.84;100.00;101416.00;5069654;28;20039;-77
2022/10/03 09:40:38;;;;;;;10.32;4.05;;;;;;;16.88;100.00;101417.88;5055309;28;20066;-77
2022/10/03 09:43:21;;;;;;;10.25;3.97;;;;;;;16.95;100.00;101407.03;5098281;28;20063;-77
2022/10/03 09:45:52;;;;;;;9.52;4.00;;;;;;;17.00;100.00;101408.91;5096209;28;20039;-76
2022/10/03 09:48:43;;;;;;;10.27;4.43;;;;;;;17.04;100.00;101407.13;5087817;28;20039;-76
2022/10/03 09:51:14;;;;;;;7.82;3.78;;;;;;;17.06;100.00;101393.59;5100297;28;20085;-77
2022/10/03 09:54:30;;;;;;;11.02;4.50;;;;;;;17.08;100.00;101388.50;5063120;28;20168;-76
2022/10/03 09:57:41;;;;;;;11.48;4.50;;;;;;;17.12;100.00;101392.34;4971699;28;20568;-77
2022/10/03 10:00:19;;;;;;;9.75;4.30;;;;;;;17.16;100.00;101384.09;5063049;28;20028;-78
2022/10/03 10:03:42;;;;;;;10.18;3.83;;;;;;;17.27;100.00;101393.09;5047493;28;20039;-77
2022/10/03 10:06:22;;;;;;;8.63;4.00;;;;;;;17.36;100.00;101382.78;5064814;28;20043;-78
2022/10/03 10:09:19;;;;;;;7.35;3.10;;;;;;;17.45;100.00;101382.84;5101704;28;20023;-77
2022/10/03 10:12:22;;;;;;;5.13;3.40;;;;;;;17.57;100.00;101381.09;5080137;28;20052;-78
2022/10/03 10:15:20;;;;;;;9.73;3.45;;;;;;;17.69;100.00;101383.34;5062423;28;20028;-78
2022/10/03 10:18:07;;;;;;;9.65;3.25;;;;;;;17.78;100.00;101380.59;5008412;28;20039;-78
2022/10/03 10:21:09;;;;;;;6.75;3.40;;;;;;;17.88;100.00;101385.94;5062595;28;20096;-78
2022/10/03 10:24:28;;;;;;;7.00;3.03;;;;;;;17.97;100.00;101389.66;5052996;28;20055;-78
2022/10/03 10:27:12;;;;;;;11.48;2.92;;;;;;;18.01;100.00;101396.28;5004175;28;20056;-78
2022/10/03 10:29:58;;;;;;;8.52;2.75;;;;;;;18.08;100.00;101393.03;5077654;28;20064;-78
2022/10/03 10:32:48;;;;;;;5.57;2.33;;;;;;;18.12;100.00;101396.00;5080662;28;20048;-78
2022/10/03 10:35:47;;;;;;;6.65;2.28;;;;;;;18.14;100.00;101397.34;5097714;28;20039;-78
2022/10/03 10:38:25;;;;;;;5.93;2.38;;;;;;;18.18;100.00;101394.69;5094403;28;20032;-78
2022/10/03 10:41:20;;;;;;;7.22;2.72;;;;;;;18.20;100.00;101392.41;5062086;28;20036;-78
2022/10/03 10:44:20;;;;;;;7.28;2.88;;;;;;;18.22;100.00;101390.06;5062808;28;20035;-78
2022/10/03 10:47:12;;;;;;;6.55;2.33;;;;;;;18.28;100.00;101400.06;5050373;28;20059;-78
2022/10/03 10:49:59;;;;;;;8.15;2.40;;;;;;;18.33;100.00;101388.66;5063327;28;20088;-78
2022/10/03 10:53:02;;;;;;;7.45;2.22;;;;;;;18.41;100.00;101389.81;5096814;28;20036;-78
2022/10/03 10:55:40;;;;;;;9.90;2.25;;;;;;;18.48;100.00;101384.56;5073839;28;20039;-79
2022/10/03 10:58:24;;;;;;;7.75;1.95;;;;;;;18.54;100.00;101386.88;5046732;28;20035;-79
2022/10/03 11:01:14;;;;;;;7.10;1.85;;;;;;;18.64;100.00;101384.94;5061911;28;20040;-78
2022/10/03 11:03:58;;;;;;;7.57;1.77;;;;;;;18.71;100.00;101377.66;5078323;28;20542;-77
2022/10/03 11:07:10;;;;;;;9.43;1.70;;;;;;;18.78;100.00;101379.19;5078563;28;20464;-78
2022/10/03 11:09:50;;;;;;;5.75;1.80;;;;;;;18.82;100.00;101368.94;4958034;28;20031;-78
2022/10/03 11:12:42;;;;;;;7.07;1.85;;;;;;;18.89;100.00;101366.47;4973479;28;20050;-78
2022/10/03 11:15:36;;;;;;;8.38;2.03;;;;;;;18.91;100.00;101364.97;5000795;28;20041;-78
2022/10/03 11:18:08;;;;;;;4.53;1.90;;;;;;;19.00;100.00;101372.59;5018846;28;20032;-78
2022/10/03 11:20:56;;;;;;;4.80;1.60;;;;;;;19.06;100.00;101362.84;5002906;28;20037;-78
2022/10/03 11:23:31;;;;;;;6.80;2.22;;;;;;;19.15;100.00;101367.28;5059613;28;20032;-77
2022/10/03 11:26:31;;;;;;;6.15;2.10;;;;;;;19.22;100.00;101369.59;5028798;28;20249;-78
2022/10/03 11:29:12;;;;;;;6.85;2.03;;;;;;;19.27;100.00;101362.97;5046719;28;20048;-77
2022/10/03 11:31:40;;;;;;;8.43;2.30;;;;;;;19.32;100.00;101363.63;5042988;28;20083;-78
2022/10/03 11:34:11;;;;;;;9.80;2.13;;;;;;;19.38;100.00;101355.84;5051391;28;20556;-77
2022/10/03 11:36:58;;;;;;;7.00;1.90;;;;;;;19.41;100.00;101358.81;5046376;28;20484;-78
2022/10/03 11:39:27;;;;;;;6.05;1.77;;;;;;;19.46;99.36;101355.00;5035152;28;20509;-77
2022/10/03 11:42:26;;;;;;;4.97;2.10;;;;;;;19.46;98.35;101348.56;5025914;28;20104;-77
2022/10/03 11:44:59;;;;;;;4.38;1.55;;;;;;;19.48;97.75;101349.88;5031325;28;20485;-77
2022/10/03 11:48:04;;;;;;;6.40;1.73;;;;;;;19.48;97.71;101352.69;5029422;28;20026;-78
2022/10/03 11:50:33;;;;;;;4.47;1.48;;;;;;;19.46;97.71;101342.91;5005775;28;20048;-78
2022/10/03 11:53:19;;;;;;;7.32;2.00;;;;;;;19.46;98.01;101346.56;5062372;28;20025;-78
2022/10/03 11:56:09;;;;;;;5.65;1.80;;;;;;;19.45;98.18;101356.19;5038306;28;20090;-77
2022/10/03 11:58:53;;;;;;;4.90;1.70;;;;;;;19.45;98.39;101350.53;5051271;28;20033;-77
2022/10/03 12:01:31;;;;;;;3.17;1.30;;;;;;;19.48;97.88;101354.69;5036297;28;20036;-78
2022/10/03 12:04:16;;;;;;;4.43;2.03;;;;;;;19.43;97.73;101342.41;5056509;28;20080;-78
2022/10/03 12:09:54;;;;;;;4.30;2.00;;;;;;;19.50;97.37;101343.88;5067651;28;20071;-77
2022/10/03 12:12:32;;;;;;;6.05;2.00;;;;;;;19.52;97.34;101338.75;5049945;28;20052;-78
2022/10/03 12:15:11;;;;;;;2.40;1.45;;;;;;;19.52;96.90;101333.94;5065256;28;20106;-78
2022/10/03 12:17:38;;;;;;;4.50;1.70;;;;;;;19.53;96.64;101331.94;5102748;28;20235;-78
2022/10/03 12:20:22;;;;;;;6.43;1.90;;;;;;;19.50;96.89;101333.47;5093144;28;20089;-77
2022/10/03 12:22:59;;;;;;;7.22;2.10;;;;;;;19.51;96.30;101335.13;5084851;28;20051;-78
2022/10/03 12:25:33;;;;;;;6.32;1.90;;;;;;;19.51;96.28;101331.47;5048017;28;20032;-77
2022/10/03 12:28:19;;;;;;;7.38;2.67;;;;;;;19.49;97.02;101331.81;5082657;28;20123;-78
2022/10/03 12:31:04;;;;;;;6.28;2.00;;;;;;;19.47;98.19;101331.31;5045532;28;20103;-78
2022/10/03 12:33:53;;;;;;;13.48;4.03;;;;;;;19.49;98.42;101334.63;5067103;28;20020;-77
2022/10/03 12:36:51;;;;;;;9.32;3.83;;;;;;;19.52;98.29;101324.66;5081246;28;20514;-78
2022/10/03 12:39:38;;;;;;;25.00;8.90;;;;;;;19.52;98.61;101321.84;5068314;28;20595;-77
2022/10/03 12:42:25;;;;;;;14.85;5.88;;;;;;;19.52;98.38;101316.22;5058684;28;20043;-78
2022/10/03 12:45:03;;;;;;;17.95;6.40;;;;;;;19.53;97.44;101318.72;5048195;28;20128;-78
2022/10/03 12:47:44;;;;;;;9.10;3.67;;;;;;;19.50;97.21;101305.31;5069798;28;20024;-78
2022/10/03 12:50:16;;;;;;;9.30;4.03;;;;;;;19.50;97.38;101308.13;5089138;28;20040;-78
2022/10/03 12:52:48;;;;;;;11.60;4.72;;;;;;;19.38;98.07;101308.78;5080732;28;20036;-79
2022/10/03 12:55:31;;;;;;;7.00;4.05;;;;;;;19.39;97.96;101304.81;5047849;28;20450;-78